Time;durP1;ratioP1;P1;durP2;ratioP2;P2;SDS_P1;SDS_P2;PMS_P1;PMS_P2;Temp;Humidity;BMP_temperature;BMP_pressure;BME280_temperature;BME280_humidity;BME280_pressure;Samples;Min_cycle;Max_cycle;Signal;HPM_P1;HPM_P2
2022/03/21 04:01:06;;;;;;;178.02;60.65;;;2.20;99.90;;;;;;6273823;22;20019;-90
2022/03/21 04:04:26;;;;;;;;;;;;;;;;;;;;;
2022/03/21 04:19:06;;;;;;;;;;;;;;;;;;;;;
2022/03/21 04:25:43;;;;;;;220.13;53.45;;;1.90;99.90;;;;;;6188105;23;20073;-92
2022/03/21 04:29:26;;;;;;;159.40;52.13;;;1.80;99.90;;;;;;6137503;23;20017;-91
2022/03/21 04:38:56;;;;;;;172.40;55.08;;;1.90;99.90;;;;;;6098177;23;20018;-88
2022/03/21 04:41:27;;;;;;;206.35;58.92;;;1.90;99.90;;;;;;6097494;23;20014;-89
2022/03/21 04:43:56;;;;;;;207.68;57.72;;;1.90;99.90;;;;;;6184482;22;20015;-91
2022/03/21 04:47:00;;;;;;;170.20;54.63;;;1.90;99.90;;;;;;6254076;22;20019;-90
2022/03/21 04:50:27;;;;;;;211.55;58.03;;;1.90;99.90;;;;;;6281099;22;20015;-92
2022/03/21 04:53:22;;;;;;;158.05;52.20;;;1.80;99.90;;;;;;6185740;22;20097;-90
2022/03/21 05:32:36;;;;;;;;;;;;;;;;;;;;;
2022/03/21 05:38:20;;;;;;;545.63;52.33;;;1.10;99.90;;;;;;5177246;27;20122;-90
2022/03/21 05:40:49;;;;;;;641.60;65.55;;;1.10;99.90;;;;;;5160214;27;20030;-88
2022/03/21 05:43:17;;;;;;;547.92;54.45;;;1.00;99.90;;;;;;5160032;27;20033;-87
2022/03/21 05:45:49;;;;;;;274.27;44.25;;;1.00;99.90;;;;;;5177642;27;20034;-89
2022/03/21 05:52:17;;;;;;;136.48;36.63;;;0.90;99.90;;;;;;5114389;28;20043;-90
2022/03/21 05:54:49;;;;;;;94.32;32.13;;;0.90;99.90;;;;;;5134135;27;20367;-86
2022/03/21 05:57:38;;;;;;;144.82;36.05;;;0.80;99.90;;;;;;5117378;27;20138;-86
2022/03/21 06:00:25;;;;;;;198.25;37.13;;;0.80;99.90;;;;;;5117639;27;20061;-89
2022/03/21 06:03:31;;;;;;;88.00;34.60;;;0.80;99.90;;;;;;5113328;27;20142;-90
2022/03/21 06:06:14;;;;;;;90.00;33.58;;;0.80;99.90;;;;;;5135871;27;20423;-86
2022/03/21 06:09:26;;;;;;;;;;;;;;;;;;;;;
2022/03/21 06:12:15;;;;;;;79.20;34.90;;;0.80;99.90;;;;;;5105716;27;20069;-88
2022/03/21 06:14:41;;;;;;;83.07;33.38;;;0.80;99.90;;;;;;5104552;27;20541;-89
2022/03/21 06:17:21;;;;;;;73.22;34.00;;;0.90;99.90;;;;;;5116946;27;20087;-86
2022/03/21 06:19:52;;;;;;;113.55;37.05;;;0.90;99.90;;;;;;5117080;27;20053;-89
2022/03/21 06:22:37;;;;;;;78.60;36.00;;;0.90;99.90;;;;;;5118206;27;20092;-90
2022/03/21 06:25:10;;;;;;;105.43;38.80;;;0.90;99.90;;;;;;5128889;27;20553;-89
2022/03/21 06:28:49;;;;;;;;;;;;;;;;;;;;;
2022/03/21 06:32:04;;;;;;;85.53;36.40;;;1.00;99.90;;;;;;5131964;27;20065;-90
2022/03/21 06:39:20;;;;;;;71.22;32.33;;;1.00;99.90;;;;;;5070516;28;20040;-89
2022/03/21 06:46:37;;;;;;;102.00;39.63;;;1.20;99.90;;;;;;5055821;28;20044;-88
2022/03/21 06:49:26;;;;;;;;;;;;;;;;;;;;;
2022/03/21 07:17:30;;;;;;;;;;;;;;;;;;;;;
2022/03/21 07:20:10;;;;;;;94.03;42.08;;;2.10;99.90;;;;;;4868197;29;20068;-92
2022/03/21 07:22:36;;;;;;;100.28;44.22;;;2.20;99.90;;;;;;4940573;28;20064;-85
2022/03/21 07:25:07;;;;;;;97.38;41.90;;;2.30;99.90;;;;;;4999193;28;20064;-87
2022/03/21 07:27:33;;;;;;;100.30;45.25;;;2.40;99.90;;;;;;4999101;28;20085;-88
2022/03/21 07:29:59;;;;;;;90.82;41.38;;;2.50;99.90;;;;;;5015560;28;20490;-89
2022/03/21 07:32:25;;;;;;;89.72;40.38;;;2.50;99.90;;;;;;5001315;28;20121;-87
2022/03/21 07:34:50;;;;;;;90.78;40.88;;;2.60;99.90;;;;;;5015341;28;20112;-82
2022/03/21 07:37:16;;;;;;;86.32;39.92;;;2.70;99.90;;;;;;5016774;28;20398;-88
2022/03/21 07:39:45;;;;;;;89.32;39.50;;;2.80;99.90;;;;;;5000892;28;20049;-89
2022/03/21 07:42:15;;;;;;;90.93;39.80;;;2.90;99.90;;;;;;5019255;28;20041;-92
2022/03/21 07:47:26;;;;;;;87.32;38.42;;;3.10;99.90;;;;;;5073913;28;20056;-87
2022/03/21 07:49:52;;;;;;;79.55;35.83;;;3.30;99.90;;;;;;5020642;28;20037;-87
2022/03/21 07:52:19;;;;;;;79.93;38.05;;;3.40;99.90;;;;;;5055601;28;20048;-90
2022/03/21 07:54:53;;;;;;;86.13;36.70;;;3.50;99.90;;;;;;5021591;28;20419;-85
2022/03/21 07:57:24;;;;;;;76.53;32.92;;;3.80;99.90;;;;;;5038260;28;20412;-87
2022/03/21 07:59:51;;;;;;;76.07;34.60;;;3.90;99.90;;;;;;5021241;28;20127;-89
2022/03/21 08:02:21;;;;;;;67.38;32.75;;;4.20;99.90;;;;;;5020812;28;20128;-89
2022/03/21 08:04:50;;;;;;;63.83;30.73;;;4.30;99.90;;;;;;5037209;28;20048;-91
2022/03/21 08:07:16;;;;;;;60.50;30.25;;;4.60;99.90;;;;;;5020717;28;20075;-86
2022/03/21 08:09:52;;;;;;;;;;;;;;;;;;;;;
2022/03/21 08:12:31;;;;;;;66.07;29.83;;;4.90;99.90;;;;;;5072499;28;20094;-91
2022/03/21 08:14:56;;;;;;;59.55;28.92;;;5.10;99.90;;;;;;5039147;28;20044;-90
2022/03/21 08:17:22;;;;;;;56.65;27.77;;;5.20;99.90;;;;;;5024794;28;20051;-90
2022/03/21 08:19:48;;;;;;;58.65;28.38;;;5.40;99.90;;;;;;5072633;28;20079;-92
2022/03/21 08:22:15;;;;;;;60.85;27.52;;;5.50;99.90;;;;;;5039588;28;20060;-92
2022/03/21 08:24:41;;;;;;;50.47;26.75;;;5.60;99.90;;;;;;5023024;28;20041;-85
2022/03/21 08:27:07;;;;;;;59.78;28.63;;;5.80;99.90;;;;;;5021919;28;20056;-88
2022/03/21 08:29:32;;;;;;;53.00;27.02;;;5.90;99.90;;;;;;5072041;28;20570;-89
2022/03/21 08:31:58;;;;;;;55.40;27.33;;;6.00;99.90;;;;;;5056972;28;20045;-88
2022/03/21 08:34:24;;;;;;;61.58;30.42;;;6.10;99.90;;;;;;5038105;28;20072;-89
2022/03/21 08:36:50;;;;;;;62.88;29.52;;;6.30;99.90;;;;;;5020441;28;20045;-90
2022/03/21 08:39:15;;;;;;;53.35;27.33;;;6.30;99.90;;;;;;5021252;28;20041;-87
2022/03/21 08:41:41;;;;;;;53.33;27.38;;;6.40;99.90;;;;;;5055971;28;20047;-92
2022/03/21 08:44:07;;;;;;;54.35;27.02;;;6.60;99.90;;;;;;5038467;28;20068;-88
2022/03/21 08:46:33;;;;;;;56.15;27.25;;;6.60;99.90;;;;;;5023263;28;20059;-87
2022/03/21 08:51:44;;;;;;;42.30;24.23;;;6.90;99.90;;;;;;5055901;28;20068;-87
2022/03/21 08:54:10;;;;;;;50.83;25.52;;;7.00;99.90;;;;;;5055615;28;20052;-87
2022/03/21 08:56:37;;;;;;;44.65;23.30;;;7.20;99.90;;;;;;5051603;28;20119;-89
2022/03/21 08:59:04;;;;;;;43.72;23.10;;;7.40;99.90;;;;;;5075430;28;20043;-89
2022/03/21 09:01:30;;;;;;;46.72;24.33;;;7.60;99.90;;;;;;5043850;28;20037;-88
2022/03/21 09:03:56;;;;;;;44.28;25.20;;;7.80;99.90;;;;;;5037863;28;20045;-88
2022/03/21 09:06:21;;;;;;;44.50;25.02;;;8.00;99.90;;;;;;5037939;28;20044;-89
2022/03/21 09:08:48;;;;;;;40.45;23.23;;;8.10;99.90;;;;;;5055792;28;20128;-90
2022/03/21 09:11:14;;;;;;;43.30;22.15;;;8.30;99.90;;;;;;5053789;28;20048;-88
2022/03/21 09:13:40;;;;;;;37.95;21.52;;;8.40;99.90;;;;;;5037867;28;20040;-86
2022/03/21 09:16:06;;;;;;;38.20;21.48;;;8.60;99.90;;;;;;5055768;28;20033;-88
2022/03/21 09:18:31;;;;;;;37.92;22.42;;;8.70;99.90;;;;;;5019897;28;20044;-88
2022/03/21 09:21:00;;;;;;;37.50;22.20;;;8.90;99.90;;;;;;5036974;28;20231;-89
2022/03/21 09:23:26;;;;;;;34.92;20.00;;;9.00;99.90;;;;;;5018016;28;20049;-86
2022/03/21 09:25:51;;;;;;;36.15;19.90;;;9.20;99.90;;;;;;5018258;28;20033;-86
2022/03/21 09:28:17;;;;;;;33.97;20.23;;;9.30;99.90;;;;;;5021708;28;20499;-91
2022/03/21 09:30:42;;;;;;;35.30;20.05;;;9.40;99.90;;;;;;5052983;28;20582;-93
2022/03/21 09:33:09;;;;;;;38.10;21.08;;;9.50;99.90;;;;;;5021103;28;20037;-88
2022/03/21 09:35:35;;;;;;;37.55;19.85;;;9.70;99.90;;;;;;5037133;28;20045;-90
2022/03/21 09:38:03;;;;;;;36.35;20.63;;;9.80;99.90;;;;;;5039678;28;20037;-87
2022/03/21 09:40:29;;;;;;;41.13;20.98;;;9.90;99.90;;;;;;5036520;28;20067;-83
2022/03/21 09:42:55;;;;;;;32.63;19.48;;;10.10;99.90;;;;;;5035888;28;20072;-87
2022/03/21 09:45:24;;;;;;;33.65;18.00;;;10.10;99.90;;;;;;5036185;28;20052;-87
2022/03/21 09:50:40;;;;;;;34.50;20.15;;;10.40;99.90;;;;;;5055242;28;20060;-89
2022/03/21 09:53:13;;;;;;;32.72;19.25;;;10.50;99.90;;;;;;5036535;28;20174;-89
2022/03/21 09:55:43;;;;;;;31.60;19.40;;;10.70;99.90;;;;;;5020227;28;20045;-88
2022/03/21 09:58:10;;;;;;;32.63;18.63;;;10.80;99.90;;;;;;5036039;28;20053;-87
2022/03/21 10:00:38;;;;;;;32.35;19.15;;;10.90;99.90;;;;;;5036260;28;20102;-89
2022/03/21 10:03:06;;;;;;;30.10;17.95;;;11.00;99.90;;;;;;5020457;28;20080;-86
2022/03/21 10:05:46;;;;;;;32.78;19.23;;;11.20;99.90;;;;;;5019826;28;20091;-88
2022/03/21 10:08:29;;;;;;;31.75;19.27;;;11.30;99.90;;;;;;5020264;28;20052;-89
2022/03/21 10:11:19;;;;;;;30.92;19.77;;;11.40;99.90;;;;;;5039555;28;20105;-86
2022/03/21 10:13:48;;;;;;;30.88;18.08;;;11.60;99.90;;;;;;4961195;28;20046;-87
2022/03/21 10:16:18;;;;;;;31.80;17.77;;;11.80;99.90;;;;;;4976098;28;20082;-86
2022/03/21 10:19:04;;;;;;;30.98;18.55;;;11.90;99.90;;;;;;4960756;28;20054;-85
2022/03/21 10:21:30;;;;;;;31.58;17.98;;;11.90;99.90;;;;;;4944307;28;20064;-84
2022/03/21 10:23:58;;;;;;;28.08;18.15;;;11.90;99.90;;;;;;4960726;28;20035;-85
2022/03/21 10:26:32;;;;;;;27.73;17.23;;;11.90;99.90;;;;;;4959779;28;20050;-86
2022/03/21 10:29:00;;;;;;;28.42;17.40;;;12.00;99.90;;;;;;4960313;28;20476;-84
2022/03/21 10:31:36;;;;;;;27.58;17.77;;;12.20;99.90;;;;;;4943877;28;20181;-85
2022/03/21 10:34:04;;;;;;;30.23;17.20;;;12.30;99.90;;;;;;4975037;28;20073;-84
2022/03/21 10:36:30;;;;;;;28.90;17.58;;;12.50;99.90;;;;;;4959583;28;20081;-79
2022/03/21 10:39:22;;;;;;;;;;;;;;;;;;;;;
2022/03/21 10:42:09;;;;;;;29.65;17.63;;;12.50;99.90;;;;;;5038203;28;20451;-85
2022/03/21 10:44:37;;;;;;;28.83;18.27;;;12.70;99.90;;;;;;5050052;28;20472;-85
2022/03/21 10:47:07;;;;;;;30.20;17.23;;;12.90;99.90;;;;;;5054391;28;20037;-86
2022/03/21 10:49:34;;;;;;;30.40;16.13;;;13.10;99.90;;;;;;5058738;28;20028;-86
2022/03/21 10:52:01;;;;;;;30.67;16.52;;;13.20;99.90;;;;;;5059943;28;20048;-82
2022/03/21 10:54:37;;;;;;;27.88;15.75;;;13.20;99.90;;;;;;5046591;28;20049;-87
2022/03/21 10:57:04;;;;;;;28.75;16.45;;;13.40;99.90;;;;;;5040516;28;20063;-87
2022/03/21 10:59:31;;;;;;;26.65;16.02;;;13.50;99.90;;;;;;5023909;28;20037;-87
2022/03/21 11:02:10;;;;;;;26.58;16.30;;;13.60;99.90;;;;;;5057148;28;20029;-86
2022/03/21 11:04:39;;;;;;;22.70;15.27;;;13.80;99.90;;;;;;5056155;28;20037;-87
2022/03/21 11:07:08;;;;;;;22.42;14.20;;;14.00;99.90;;;;;;5039992;28;20056;-86
2022/03/21 11:09:34;;;;;;;22.83;14.65;;;14.20;99.90;;;;;;5039724;28;20051;-87
2022/03/21 11:12:02;;;;;;;24.65;15.40;;;14.30;99.90;;;;;;5039367;28;20078;-87
2022/03/21 11:14:29;;;;;;;23.85;15.02;;;14.30;99.60;;;;;;5039768;28;20088;-86
2022/03/21 11:16:56;;;;;;;25.63;15.73;;;14.50;99.90;;;;;;5056715;28;20075;-87
2022/03/21 11:19:23;;;;;;;25.38;15.35;;;14.60;98.90;;;;;;5038855;28;20090;-85
2022/03/21 11:21:49;;;;;;;25.15;14.55;;;14.70;98.20;;;;;;5056653;28;20047;-86
2022/03/21 11:24:15;;;;;;;27.73;15.77;;;14.90;97.60;;;;;;5038422;28;20436;-85
2022/03/21 11:26:52;;;;;;;23.77;14.05;;;14.90;94.30;;;;;;5022023;28;20040;-85
2022/03/21 11:29:39;;;;;;;25.35;14.63;;;14.80;87.00;;;;;;5039320;28;20033;-87
2022/03/21 11:32:46;;;;;;;22.35;13.93;;;14.90;88.20;;;;;;5038937;28;20045;-87
2022/03/21 11:35:23;;;;;;;22.75;13.88;;;15.00;80.80;;;;;;4995633;28;20526;-87
2022/03/21 11:37:50;;;;;;;24.15;15.20;;;15.10;85.00;;;;;;5039348;28;20052;-87
2022/03/21 11:40:35;;;;;;;25.08;14.68;;;15.10;85.00;;;;;;5057069;28;20041;-87
2022/03/21 11:43:19;;;;;;;21.90;14.40;;;15.30;83.70;;;;;;5038862;28;20059;-86
2022/03/21 11:45:57;;;;;;;26.88;15.20;;;15.50;83.80;;;;;;5038887;28;20052;-88
2022/03/21 11:48:23;;;;;;;26.02;15.40;;;15.60;86.40;;;;;;5056536;28;20041;-87
2022/03/21 11:51:14;;;;;;;25.23;16.25;;;15.70;88.20;;;;;;5038762;28;20045;-85
2022/03/21 11:53:51;;;;;;;21.40;12.73;;;15.90;75.60;;;;;;5038234;28;20085;-86
2022/03/21 11:56:37;;;;;;;22.13;13.27;;;15.90;69.40;;;;;;5055585;28;20390;-87
2022/03/21 11:59:51;;;;;;;22.52;13.80;;;15.90;69.10;;;;;;5022072;28;20045;-86
2022/03/21 12:02:17;;;;;;;19.50;12.93;;;16.00;68.90;;;;;;5037990;28;20102;-85
2022/03/21 12:04:56;;;;;;;22.58;14.13;;;16.00;68.60;;;;;;5055507;28;20049;-85
2022/03/21 12:07:41;;;;;;;22.02;13.77;;;16.10;64.90;;;;;;5056011;28;20037;-84
2022/03/21 12:10:47;;;;;;;22.73;13.93;;;16.20;65.80;;;;;;5037689;28;20051;-85
2022/03/21 12:13:19;;;;;;;23.63;14.38;;;16.30;66.90;;;;;;5038622;28;20098;-85
2022/03/21 12:15:51;;;;;;;22.27;14.27;;;16.50;70.40;;;;;;5055104;28;20531;-84
2022/03/21 12:18:17;;;;;;;23.05;13.90;;;16.60;70.00;;;;;;5055701;28;20032;-83
2022/03/21 12:20:46;;;;;;;24.42;14.07;;;16.70;68.30;;;;;;5020638;28;20047;-85
2022/03/21 12:23:19;;;;;;;26.55;15.05;;;16.60;65.30;;;;;;5056154;28;20040;-84
2022/03/21 12:25:47;;;;;;;24.17;14.93;;;16.50;66.40;;;;;;5021534;28;20485;-83
2022/03/21 12:31:29;;;;;;;22.27;14.32;;;16.20;63.70;;;;;;5036859;28;20081;-86
2022/03/21 12:34:44;;;;;;;23.52;15.35;;;16.40;65.30;;;;;;5055348;28;20102;-86
2022/03/21 12:37:44;;;;;;;24.90;14.27;;;16.50;67.40;;;;;;4943014;28;20178;-87
2022/03/21 12:43:24;;;;;;;21.20;14.23;;;16.80;65.40;;;;;;5069283;22;20045;-86
2022/03/21 12:45:53;;;;;;;;;;;17.00;63.70;;;;;;5037672;28;20044;-84
2022/03/21 12:48:29;;;;;;;22.17;14.57;;;17.00;63.80;;;;;;5070775;28;20313;-85
2022/03/21 12:58:45;;;;;;;;;;;17.60;65.40;;;;;;4821370;26;20044;-88
2022/03/21 13:01:27;;;;;;;24.63;13.82;;;17.70;60.90;;;;;;5037408;28;19970;-88
2022/03/21 13:28:53;;;;;;;24.90;15.23;;;19.10;55.60;;;;;;5013843;28;19921;-88
2022/03/21 17:16:24;;;;;;;34.67;15.33;;;16.40;71.50;;;;;;6016854;23;19919;-85
2022/03/21 17:23:51;;;;;;;;;;;15.80;77.30;;;;;;5042886;23;20397;-80
2022/03/21 17:26:16;;;;;;;;;;;15.70;80.80;;;;;;5014303;28;19921;-87
2022/03/21 17:28:42;;;;;;;;;;;15.60;81.80;;;;;;4998526;28;20258;-84
2022/03/21 20:23:44;;;;;;;35.80;19.83;;;10.30;99.90;;;;;;5034386;28;20046;-87
2022/03/21 20:33:35;;;;;;;;;;;;;;;;;;;;;
2022/03/21 20:37:06;;;;;;;36.75;20.50;;;10.00;99.90;;;;;;4953724;29;20058;-87
2022/03/21 20:40:12;;;;;;;38.20;21.88;;;9.90;99.90;;;;;;4937013;29;20462;-86
2022/03/21 20:43:41;;;;;;;;;;;;;;;;;;;;;
2022/03/21 20:46:28;;;;;;;41.35;21.60;;;9.90;99.90;;;;;;4937241;29;20159;-87
2022/03/21 20:49:27;;;;;;;40.92;22.65;;;9.80;99.90;;;;;;4938870;29;20470;-85
2022/03/21 20:51:59;;;;;;;38.72;21.50;;;9.70;99.90;;;;;;4922921;29;20064;-86
2022/03/21 20:54:28;;;;;;;38.63;21.17;;;9.80;99.90;;;;;;4994674;28;20084;-85
2022/03/21 20:56:54;;;;;;;40.65;23.20;;;9.70;99.90;;;;;;5033923;28;20393;-85
2022/03/21 20:59:37;;;;;;;39.40;21.55;;;9.70;99.90;;;;;;5017880;28;20032;-85
2022/03/21 21:02:03;;;;;;;46.33;22.85;;;9.60;99.90;;;;;;5016778;28;20191;-85
2022/03/21 21:04:30;;;;;;;42.55;21.05;;;9.50;99.90;;;;;;5001263;28;20045;-86
2022/03/21 21:06:56;;;;;;;42.60;23.45;;;9.40;99.90;;;;;;5016858;28;20124;-87
2022/03/21 21:09:22;;;;;;;44.35;22.67;;;9.40;99.90;;;;;;5033675;28;20445;-86
2022/03/21 21:11:49;;;;;;;41.60;22.92;;;9.40;99.90;;;;;;5016525;28;20133;-88
2022/03/21 21:14:15;;;;;;;44.00;23.90;;;9.30;99.90;;;;;;5017032;28;20390;-84
2022/03/21 21:16:44;;;;;;;44.13;22.95;;;9.30;99.90;;;;;;5001176;28;20049;-87
2022/03/21 21:19:14;;;;;;;42.47;23.63;;;9.30;99.90;;;;;;5016791;28;20059;-86
2022/03/21 21:21:39;;;;;;;49.28;25.58;;;9.30;99.90;;;;;;5017955;28;20133;-88
2022/03/21 21:24:09;;;;;;;49.00;25.58;;;9.30;99.90;;;;;;5000888;28;20394;-88
2022/03/21 21:26:38;;;;;;;48.20;25.30;;;9.20;99.90;;;;;;5000982;28;20357;-89
2022/03/21 21:36:30;;;;;;;;;;;;;;;;;;;;;
2022/03/21 21:39:24;;;;;;;43.03;23.00;;;9.10;99.90;;;;;;5016211;28;20101;-88
2022/03/21 21:41:50;;;;;;;45.10;24.00;;;9.10;99.90;;;;;;5016679;28;20112;-86
2022/03/21 21:44:18;;;;;;;45.70;22.95;;;9.00;99.90;;;;;;5000510;28;20026;-86
2022/03/21 21:46:44;;;;;;;43.60;23.95;;;8.90;99.90;;;;;;5001221;28;20087;-86
2022/03/21 21:49:09;;;;;;;51.53;24.83;;;8.90;99.90;;;;;;5017706;28;20428;-87
2022/03/21 21:51:35;;;;;;;47.15;23.95;;;8.90;99.90;;;;;;5016644;28;20342;-85
2022/03/21 21:54:01;;;;;;;42.67;23.77;;;8.90;99.90;;;;;;4999592;28;20413;-84
2022/03/21 21:56:28;;;;;;;44.60;24.42;;;8.80;99.90;;;;;;5000337;28;20166;-87
2022/03/21 21:58:56;;;;;;;48.17;23.85;;;8.70;99.90;;;;;;5016836;28;20045;-85
2022/03/21 22:01:25;;;;;;;43.22;22.92;;;8.70;99.90;;;;;;5016657;28;20517;-89
2022/03/21 22:04:06;;;;;;;;;;;;;;;;;;;;;
2022/03/21 22:06:32;;;;;;;44.60;22.83;;;8.50;99.90;;;;;;5020712;28;20041;-88
2022/03/21 22:08:58;;;;;;;49.67;23.38;;;8.50;99.90;;;;;;5020702;28;20554;-85
2022/03/21 22:11:26;;;;;;;44.05;23.52;;;8.40;99.90;;;;;;5004124;28;20038;-85
2022/03/21 22:13:52;;;;;;;48.40;24.65;;;8.40;99.90;;;;;;5020865;28;20041;-87
2022/03/21 22:16:24;;;;;;;48.63;25.88;;;8.30;99.90;;;;;;5037369;28;20041;-88
2022/03/21 22:18:53;;;;;;;53.45;25.17;;;8.30;99.90;;;;;;5021013;28;20493;-87
2022/03/21 22:21:18;;;;;;;53.20;27.73;;;8.30;99.90;;;;;;5020705;28;20041;-84
2022/03/21 22:23:44;;;;;;;55.25;27.70;;;8.30;99.90;;;;;;5019059;28;20049;-87
2022/03/21 22:26:10;;;;;;;55.83;26.50;;;8.20;99.90;;;;;;5004260;28;20139;-84
2022/03/21 22:28:39;;;;;;;51.45;28.83;;;8.20;99.90;;;;;;5020468;28;20045;-87
2022/03/21 22:31:04;;;;;;;55.45;28.80;;;8.20;99.90;;;;;;5020351;28;20511;-88
2022/03/21 22:33:30;;;;;;;55.92;26.48;;;8.10;99.90;;;;;;5021078;28;20124;-88
2022/03/21 22:35:56;;;;;;;48.78;26.02;;;8.10;99.90;;;;;;5021033;28;20034;-89
2022/03/21 22:38:24;;;;;;;47.50;26.40;;;8.00;99.90;;;;;;5020658;28;20045;-86
2022/03/21 22:47:14;;;;;;;50.40;25.70;;;7.90;99.90;;;;;;5020292;28;20049;-86
2022/03/21 22:49:45;;;;;;;50.83;27.02;;;7.80;99.90;;;;;;5004840;28;20096;-88
2022/03/21 22:52:25;;;;;;;;;;;;;;;;;;;;;
2022/03/21 22:54:55;;;;;;;47.97;25.27;;;7.70;99.90;;;;;;5035513;28;20068;-85
2022/03/21 22:57:24;;;;;;;48.90;25.13;;;7.70;99.90;;;;;;5020533;28;20095;-87
2022/03/21 22:59:55;;;;;;;45.95;24.40;;;7.70;99.90;;;;;;5020016;28;20433;-85
2022/03/21 23:02:25;;;;;;;53.45;25.65;;;7.70;99.90;;;;;;5035997;28;20076;-87
2022/03/21 23:04:52;;;;;;;49.95;24.80;;;7.60;99.90;;;;;;5019605;28;20049;-84
2022/03/21 23:07:21;;;;;;;52.38;25.83;;;7.60;99.90;;;;;;5003323;28;20330;-85
2022/03/21 23:10:09;;;;;;;50.45;24.90;;;7.50;99.90;;;;;;5019854;28;20037;-86
2022/03/21 23:13:21;;;;;;;45.73;24.33;;;7.50;99.90;;;;;;5018895;28;20513;-85
